Latest Weather Observations for Cape Byron

IDN60801

Issued at 6:42 am EST Wednesday 8 April 2020 (issued every 10 minutes, with the page automatically refreshed every 10 minutes)

About weather observations | Map of weather stations | Latest weather observations for NSW | Other Formats
Station Details ID: 058216 Name: CAPE BYRON AWS Lat: -28.64 Lon: 153.64 Height: 95.0 m
Data from the previous 72 hours. | See also: Recent months at Cape Byron
Date/Time
EST
Temp
°C
App
Temp
°C
Dew
Point
°C
Rel
Hum
%
Delta-T
°C
Wind Press
QNH
hPa
Press
MSL
hPa
Rain since
9am
mm
Dir  Spd
km/h
Gust
km/h
Spd
kts
Gust
kts
08/06:30am 16.9 14.3 16.9 100 0.0 WSW 26 35 14 19 1018.7 1018.3 16.6
08/06:00am 16.8 13.8 16.8 100 0.0 SW 28 35 15 19 1018.6 1018.2 16.6
08/05:30am 16.7 13.3 16.7 100 0.0 SW 30 37 16 20 1018.4 1018.0 16.6
08/05:00am 16.7 12.9 16.7 100 0.0 SW 32 39 17 21 1018.1 1017.7 16.6
08/04:30am 16.7 13.7 16.7 100 0.0 SW 28 35 15 19 1018.0 1017.6 16.6
08/04:00am 17.0 15.2 17.0 100 0.0 WSW 22 28 12 15 1017.8 1017.4 16.6
08/03:30am 17.1 14.2 17.1 100 0.0 SW 28 33 15 18 1017.7 1017.3 16.6
08/03:00am 17.4 15.8 17.4 100 0.0 SW 22 30 12 16 1017.6 1017.2 16.6
08/02:30am 17.5 16.5 17.5 100 0.0 SW 19 28 10 15 1017.9 1017.5 16.6
08/02:00am 17.4 15.4 17.4 100 0.0 WSW 24 30 13 16 1018.0 1017.6 16.2
08/01:30am 17.6 14.9 17.6 100 0.0 SW 28 32 15 17 1018.3 1017.9 16.2
08/01:00am 17.9 15.3 17.9 100 0.0 SW 28 35 15 19 1018.4 1018.0 16.2
08/12:30am 21.0 17.9 17.4 80 2.2 SE 30 41 16 22 1018.5 1018.1 16.2
08/12:13am 20.2 19.0 18.3 89 1.2 SSE 22 41 12 22 1018.2 1017.8 16.2
08/12:00am 18.4 18.5 18.4 100 0.0 SSW 15 22 8 12 1018.5 1018.1 16.2
 
Date/Time
EST
Temp
°C
App
Temp
°C
Dew
Point
°C
Rel
Hum
%
Delta-T
°C
Wind Press
QNH
hPa
Press
MSL
hPa
Rain since
9am
mm
Dir  Spd
km/h
Gust
km/h
Spd
kts
Gust
kts
07/11:30pm 18.4 17.6 18.4 100 0.0 SW 20 39 11 21 1018.6 1018.2 16.0
07/11:00pm 18.4 16.1 18.4 100 0.0 SW 28 43 15 23 1019.0 1018.6 16.0
07/10:30pm 18.4 18.2 18.4 100 0.0 SW 17 26 9 14 1019.0 1018.6 16.0
07/10:00pm 18.8 16.9 18.6 99 0.1 SW 26 39 14 21 1019.0 1018.6 16.0
07/09:30pm 18.8 17.0 18.8 100 0.0 SSW 26 37 14 20 1019.1 1018.7 16.0
07/09:00pm 18.5 17.3 18.5 100 0.0 SW 22 33 12 18 1019.0 1018.6 16.0
07/08:30pm 18.4 16.1 18.4 100 0.0 SW 28 39 15 21 1018.9 1018.5 16.0
07/08:00pm 18.3 15.5 18.3 100 0.0 SW 30 41 16 22 1018.5 1018.1 15.8
07/07:46pm 18.5 16.2 18.5 100 0.0 SW 28 48 15 26 1018.4 1018.0 15.6
07/07:30pm 18.4 17.2 18.4 100 0.0 SW 22 33 12 18 1018.4 1018.0 14.8
07/07:00pm 18.4 17.2 18.4 100 0.0 SW 22 32 12 17 1018.2 1017.8 10.6
07/06:30pm 18.7 15.5 18.7 100 0.0 SE 33 43 18 23 1017.9 1017.5 6.6
07/06:03pm 18.9 15.8 18.9 100 0.0 SW 33 52 18 28 1017.4 1017.0 2.2
07/06:00pm 18.7 15.7 18.7 100 0.0 SW 32 41 17 22 1017.3 1016.9 1.4
07/05:30pm 19.5 18.8 18.7 95 0.5 S 20 32 11 17 1017.3 1016.9 0.8
07/05:00pm 19.5 18.8 19.5 100 0.0 S 22 39 12 21 1017.1 1016.7 0.8
07/04:30pm 18.9 17.2 18.9 100 0.0 SW 26 35 14 19 1016.9 1016.5 0.4
07/04:00pm 19.6 16.6 19.1 97 0.3 SSW 33 46 18 25 1016.9 1016.5 0.0
07/03:30pm 20.3 17.7 19.6 96 0.4 SW 32 41 17 22 1016.8 1016.4 0.0
07/03:00pm 20.2 16.9 18.3 89 1.2 SW 33 46 18 25 1016.9 1016.5 0.0
07/02:30pm 19.8 17.9 19.3 97 0.3 SW 28 41 15 22 1017.2 1016.8 0.0
07/02:00pm 20.1 16.9 18.6 91 0.9 SSW 33 41 18 22 1017.2 1016.8 0.0
07/01:30pm 21.1 16.0 17.7 81 2.1 SSW 41 54 22 29 1017.0 1016.6 0.0
07/01:00pm 22.6 18.0 17.9 75 2.9 SSW 39 48 21 26 1017.2 1016.8 0.0
07/12:30pm 21.6 15.4 18.2 81 2.1 SSW 48 61 26 33 1017.5 1017.1 0.0
07/12:00pm 22.2 16.3 17.1 73 3.1 SSW 44 56 24 30 1018.1 1017.7 0.0
07/11:30am 21.9 15.8 16.6 72 3.2 SSW 44 54 24 29 1018.5 1018.1 0.0
07/11:00am 22.0 16.6 16.9 73 3.1 SSW 41 50 22 27 1018.8 1018.4 0.0
07/10:30am 21.9 17.4 16.4 71 3.3 SSW 35 52 19 28 1018.8 1018.4 0.0
07/10:00am 21.9 17.7 17.1 74 2.9 SSW 35 54 19 29 1018.9 1018.5 0.0
07/09:30am 20.8 16.8 16.6 77 2.6 SW 33 43 18 23 1019.0 1018.6 0.0
07/09:00am 20.1 16.0 15.9 77 2.5 SW 32 43 17 23 1019.1 1018.7 0.0
07/08:30am 19.1 16.5 16.0 82 1.9 SW 24 33 13 18 1019.0 1018.6 0.0
07/08:00am 18.5 14.6 15.4 82 1.8 SW 30 35 16 19 1018.6 1018.2 0.0
07/07:30am 18.0 13.9 14.9 82 1.8 WSW 30 37 16 20 1018.4 1018.0 0.0
07/07:00am 17.7 13.9 14.8 83 1.7 WSW 28 37 15 20 1017.9 1017.5 0.0
07/06:30am 17.9 14.1 14.8 82 1.8 WSW 28 33 15 18 1017.9 1017.5 0.0
07/06:00am 17.8 13.2 14.7 82 1.8 WSW 32 39 17 21 1017.6 1017.2 0.0
07/05:30am 17.8 13.8 15.1 84 1.6 SW 30 37 16 20 1017.2 1016.8 0.0
07/05:00am 18.1 13.7 15.2 83 1.7 SW 32 37 17 20 1016.9 1016.5 0.0
07/04:30am 18.1 14.3 14.8 81 1.9 SW 28 33 15 18 1016.7 1016.3 0.0
07/04:00am 18.6 15.2 14.7 78 2.3 SW 26 32 14 17 1016.7 1016.3 0.0
07/03:30am 19.1 15.6 14.6 75 2.6 SW 26 32 14 17 1016.7 1016.3 0.0
07/03:00am 19.6 16.8 15.3 76 2.5 SW 24 32 13 17 1016.7 1016.3 0.0
07/02:30am 19.8 17.7 15.2 75 2.7 SW 20 28 11 15 1016.8 1016.4 0.0
07/02:00am 19.4 17.2 15.9 80 2.1 SW 22 32 12 17 1017.2 1016.8 0.0
07/01:30am 19.5 17.2 15.6 78 2.3 SW 22 30 12 16 1017.3 1016.9 0.0
07/01:00am 19.2 17.0 15.9 81 2.0 SW 22 28 12 15 1017.5 1017.1 0.0
07/12:30am 19.5 17.4 15.2 76 2.5 SW 20 24 11 13 1017.8 1017.4 0.0
07/12:00am 20.6 18.9 14.7 69 3.5 SW 17 22 9 12 1017.9 1017.5 0.0
 
Date/Time
EST
Temp
°C
App
Temp
°C
Dew
Point
°C
Rel
Hum
%
Delta-T
°C
Wind Press
QNH
hPa
Press
MSL
hPa
Rain since
9am
mm
Dir  Spd
km/h
Gust
km/h
Spd
kts
Gust
kts
06/11:30pm 22.4 19.5 15.0 63 4.4 S 24 32 13 17 1018.0 1017.6 0.0
06/11:00pm 22.5 20.0 16.1 67 3.9 SE 24 32 13 17 1017.9 1017.5 0.0
06/10:30pm 22.5 19.0 15.6 65 4.2 SE 28 35 15 19 1018.0 1017.6 0.0
06/10:00pm 22.5 19.2 16.1 67 3.9 SE 28 35 15 19 1018.2 1017.8 0.0
06/09:30pm 22.5 19.5 14.9 62 4.5 SE 24 33 13 18 1018.3 1017.9 0.0
06/09:00pm 22.5 19.8 15.6 65 4.1 SE 24 35 13 19 1018.1 1017.7 0.0
06/08:30pm 22.5 19.6 16.1 67 3.9 SE 26 35 14 19 1017.9 1017.5 0.0
06/08:00pm 22.5 18.8 16.1 67 3.9 ESE 30 37 16 20 1017.6 1017.2 0.0
06/07:30pm 22.6 19.4 16.2 67 3.9 SE 28 39 15 21 1017.3 1016.9 0.0
06/07:00pm 22.7 19.1 16.3 67 3.9 ESE 30 35 16 19 1016.9 1016.5 0.0
06/06:30pm 22.6 19.4 16.2 67 3.9 SE 28 33 15 18 1016.6 1016.2 0.0
06/06:00pm 22.7 20.4 15.8 65 4.2 S 22 30 12 16 1016.3 1015.9 0.0
06/05:30pm 22.5 20.0 17.0 71 3.4 S 26 32 14 17 1016.1 1015.8 0.0
06/05:00pm 22.7 19.7 16.9 70 3.6 S 28 33 15 18 1015.8 1015.5 0.0
06/04:30pm 22.8 19.7 16.6 68 3.8 S 28 33 15 18 1015.7 1015.4 0.0
06/04:00pm 22.8 19.9 17.0 70 3.6 S 28 35 15 19 1015.7 1015.4 0.0
06/03:30pm 22.7 18.8 16.5 68 3.8 S 32 37 17 20 1015.8 1015.5 0.0
06/03:00pm 22.7 18.4 15.5 64 4.3 S 32 37 17 20 1015.7 1015.4 0.0
06/02:30pm 22.7 18.7 15.3 63 4.4 S 30 35 16 19 1015.9 1015.6 0.0
06/02:00pm 22.9 19.7 16.2 66 4.1 SE 28 30 15 16 1016.0 1015.7 0.0
06/01:30pm 23.1 21.7 16.9 68 3.8 SSE 20 30 11 16 1016.0 1015.7 0.0
06/01:00pm 23.0 20.4 15.8 64 4.4 S 24 32 13 17 1016.4 1016.0 0.0
06/12:30pm 23.0 21.2 16.1 65 4.2 S 20 28 11 15 1016.7 1016.3 0.0
06/12:00pm 23.1 21.5 16.4 66 4.1 S 20 24 11 13 1017.2 1016.8 0.0
06/11:30am 22.4 20.6 16.0 67 3.9 S 20 26 11 14 1017.6 1017.2 0.0
06/11:00am 22.3 20.0 15.6 66 4.0 S 22 28 12 15 1017.7 1017.3 0.0
06/10:30am 21.9 20.1 15.5 67 3.8 S 19 24 10 13 1017.9 1017.5 0.0
06/10:00am 21.5 19.6 15.8 70 3.4 SSW 20 26 11 14 1018.1 1017.7 0.0
06/09:30am 21.3 19.9 15.6 70 3.4 SSW 17 22 9 12 1018.3 1017.9 0.0
06/09:00am 20.8 20.3 16.0 74 2.9 SW 13 19 7 10 1018.3 1017.9 0.0
06/08:30am 19.4 17.8 15.1 76 2.5 WSW 17 22 9 12 1018.4 1018.0 0.0
06/08:00am 18.4 16.1 14.7 79 2.2 SW 20 26 11 14 1018.1 1017.7 0.0
06/07:30am 18.4 16.3 14.7 79 2.2 WSW 19 24 10 13 1017.9 1017.5 0.0
06/07:00am 17.4 14.7 14.7 84 1.6 WSW 22 28 12 15 1017.4 1017.0 0.0
06/06:30am 17.1 14.7 14.4 84 1.6 WSW 20 28 11 15 1017.0 1016.6 0.0
06/06:00am 18.3 15.9 14.4 78 2.3 WSW 20 22 11 12 1016.8 1016.4 0.0
06/05:30am 18.7 16.3 14.4 76 2.5 WSW 20 24 11 13 1016.6 1016.2 0.0
06/05:00am 18.7 16.9 14.4 76 2.5 WSW 17 20 9 11 1016.3 1015.9 0.0
06/04:30am 19.3 18.0 14.8 75 2.6 WSW 15 19 8 10 1015.9 1015.6 0.0
06/04:00am 19.4 18.0 14.6 74 2.8 W 15 19 8 10 1015.7 1015.4 0.0
06/03:30am 19.7 18.8 14.9 74 2.8 WSW 13 17 7 9 1015.6 1015.3 0.0
06/03:00am 20.2 19.5 15.4 74 2.8 WSW 13 15 7 8 1015.6 1015.3 0.0
06/02:30am 20.4 20.5 15.4 73 3.0 SW 9 11 5 6 1015.7 1015.4 0.0
06/02:00am 20.8 21.4 15.4 71 3.2 WNW 6 7 3 4 1015.7 1015.4 0.0
06/01:30am 20.8 21.5 15.6 72 3.1 WNW 6 7 3 4 1015.9 1015.6 0.0
06/01:00am 20.8 22.6 15.6 72 3.1 CALM 0 6 0 3 1016.1 1015.8 0.0
06/12:30am 20.9 22.9 15.9 73 3.0 CALM 0 0 0 0 1016.4 1016.0 0.0
06/12:00am 20.8 21.9 15.6 72 3.1 NW 4 6 2 3 1016.6 1016.2 0.0
 
Date/Time
EST
Temp
°C
App
Temp
°C
Dew
Point
°C
Rel
Hum
%
Delta-T
°C
Wind Press
QNH
hPa
Press
MSL
hPa
Rain since
9am
mm
Dir  Spd
km/h
Gust
km/h
Spd
kts
Gust
kts
05/11:30pm 21.1 23.1 15.9 72 3.1 CALM 0 0 0 0 1016.8 1016.4 0.0
05/11:00pm 20.8 22.7 15.8 73 3.0 CALM 0 0 0 0 1016.8 1016.4 0.0
05/10:30pm 21.2 22.1 16.0 72 3.1 ENE 6 7 3 4 1016.9 1016.5 0.0
05/10:00pm 20.9 21.2 15.9 73 3.0 NE 9 11 5 6 1016.9 1016.5 0.0
05/09:30pm 20.7 21.3 15.7 73 3.0 NNE 7 11 4 6 1016.8 1016.4 0.0
05/09:00pm 20.7 20.9 15.7 73 3.0 NNE 9 15 5 8 1016.8 1016.4 0.0
05/08:30pm 21.1 21.5 16.3 74 2.9 ENE 9 15 5 8 1016.8 1016.4 0.0
05/08:00pm 21.6 21.5 16.1 71 3.3 ENE 11 17 6 9 1016.5 1016.1 0.0
05/07:30pm 21.4 21.3 16.1 72 3.2 E 11 17 6 9 1016.3 1015.9 0.0
05/07:00pm 21.8 21.4 16.3 71 3.3 SE 13 17 7 9 1015.8 1015.5 0.0
05/06:30pm 21.0 20.2 16.2 74 2.9 S 15 17 8 9 1015.5 1015.2 0.0
05/06:00pm 20.3 18.9 15.5 74 2.9 SSW 17 20 9 11 1015.1 1014.8 0.0
05/05:30pm 21.4 19.8 16.6 74 2.9 SSW 20 26 11 14 1015.0 1014.7 0.0
05/05:00pm 21.8 18.3 15.6 68 3.7 SSW 28 32 15 17 1014.7 1014.4 0.0
05/04:30pm 22.0 18.1 15.4 66 4.0 S 30 33 16 18 1014.5 1014.2 0.0
05/04:00pm 22.3 18.8 15.6 66 4.0 SSW 28 32 15 17 1014.2 1013.9 0.0
05/03:30pm 22.4 18.1 15.3 64 4.3 SSW 32 35 17 19 1014.3 1014.0 0.0
05/03:00pm 22.5 18.4 14.9 62 4.5 S 30 33 16 18 1014.1 1013.8 0.0
05/02:30pm 22.5 18.4 14.9 62 4.5 SSW 30 33 16 18 1014.2 1013.9 0.0
05/02:00pm 22.7 18.1 14.5 60 4.8 S 32 35 17 19 1014.4 1014.1 0.0
05/01:30pm 22.8 18.8 15.1 62 4.6 S 30 33 16 18 1014.5 1014.2 0.0
05/01:00pm 22.9 18.7 15.7 64 4.3 S 32 35 17 19 1014.7 1014.4 0.0
05/12:30pm 22.9 18.8 16.0 65 4.2 S 32 37 17 20 1015.0 1014.7 0.0
05/12:00pm 22.9 19.0 15.5 63 4.5 S 30 35 16 19 1015.4 1015.1 0.0
05/11:30am 23.0 19.2 14.6 59 5.0 SSW 28 33 15 18 1015.7 1015.4 0.0
05/11:00am 22.8 18.9 14.4 59 5.0 S 28 32 15 17 1016.0 1015.7 0.0
05/10:30am 22.6 19.4 14.2 59 4.9 S 24 30 13 16 1016.4 1016.0 0.0
05/10:00am 22.5 20.3 14.9 62 4.5 SSW 20 28 11 15 1016.3 1015.9 0.0
05/09:30am 22.0 19.1 13.9 60 4.7 SSW 22 28 12 15 1016.4 1016.0 0.0
05/09:00am 21.4 18.5 12.8 58 4.9 SSW 20 28 11 15 1016.3 1015.9 0.2
05/08:30am 21.0 17.7 11.6 55 5.2 SW 20 32 11 17 1016.0 1015.7 0.2
05/08:00am 20.3 18.2 13.7 66 3.8 SW 17 24 9 13 1015.8 1015.5 0.2
05/07:30am 19.7 17.3 13.9 69 3.3 SW 19 24 10 13 1015.4 1015.1 0.2
05/07:00am 19.1 17.0 14.8 76 2.5 SW 19 24 10 13 1014.9 1014.6 0.2

Other formats

Comma delimited format used in spreadsheet applications
http://www.bom.gov.au/fwo/IDN60801/IDN60801.94599.axf

JavaScript Object Notation format (JSON) in row-major order
http://www.bom.gov.au/fwo/IDN60801/IDN60801.94599.json

Data quality

Most of these data are generated automatically and are frequently updated. Quality checks on data are not normally performed. It is possible for incorrect values to appear. Refer to information at About Latest Weather Observations and please check the disclaimer before using these data.